sensor_id;sensor_type;location;lat;lon;timestamp;P1;durP1;ratioP1;P2;durP2;ratioP2
37051;SDS011;22964;52.272;13.356;2022-11-15T00:02:06;26.30;;;15.82;;
37051;SDS011;22964;52.272;13.356;2022-11-15T00:04:50;26.83;;;16.40;;
37051;SDS011;22964;52.272;13.356;2022-11-15T00:07:34;27.35;;;16.40;;
37051;SDS011;22964;52.272;13.356;2022-11-15T00:10:18;26.25;;;15.98;;
37051;SDS011;22964;52.272;13.356;2022-11-15T00:13:06;27.38;;;16.58;;
37051;SDS011;22964;52.272;13.356;2022-11-15T00:15:58;28.90;;;16.55;;
37051;SDS011;22964;52.272;13.356;2022-11-15T00:18:44;28.73;;;17.10;;
37051;SDS011;22964;52.272;13.356;2022-11-15T00:21:28;29.45;;;16.77;;
37051;SDS011;22964;52.272;13.356;2022-11-15T00:24:12;28.73;;;16.30;;
37051;SDS011;22964;52.272;13.356;2022-11-15T00:26:56;28.48;;;17.30;;
37051;SDS011;22964;52.272;13.356;2022-11-15T00:29:40;29.90;;;18.55;;
37051;SDS011;22964;52.272;13.356;2022-11-15T00:32:30;27.90;;;16.77;;
37051;SDS011;22964;52.272;13.356;2022-11-15T00:35:15;26.90;;;16.83;;
37051;SDS011;22964;52.272;13.356;2022-11-15T00:38:00;27.85;;;16.10;;
37051;SDS011;22964;52.272;13.356;2022-11-15T00:40:45;25.95;;;16.48;;
37051;SDS011;22964;52.272;13.356;2022-11-15T00:43:29;28.50;;;16.67;;
37051;SDS011;22964;52.272;13.356;2022-11-15T00:46:13;27.63;;;16.25;;
37051;SDS011;22964;52.272;13.356;2022-11-15T00:48:58;28.98;;;16.38;;
37051;SDS011;22964;52.272;13.356;2022-11-15T00:51:42;26.45;;;15.48;;
37051;SDS011;22964;52.272;13.356;2022-11-15T00:54:26;25.33;;;15.75;;
37051;SDS011;22964;52.272;13.356;2022-11-15T00:57:10;25.08;;;15.07;;
37051;SDS011;22964;52.272;13.356;2022-11-15T00:59:54;27.60;;;16.85;;
37051;SDS011;22964;52.272;13.356;2022-11-15T01:02:38;24.17;;;15.45;;
37051;SDS011;22964;52.272;13.356;2022-11-15T01:05:22;26.63;;;17.13;;
37051;SDS011;22964;52.272;13.356;2022-11-15T01:08:11;27.55;;;17.48;;
37051;SDS011;22964;52.272;13.356;2022-11-15T01:11:00;33.65;;;16.63;;
37051;SDS011;22964;52.272;13.356;2022-11-15T01:13:48;26.33;;;16.27;;
37051;SDS011;22964;52.272;13.356;2022-11-15T01:16:32;26.50;;;15.63;;
37051;SDS011;22964;52.272;13.356;2022-11-15T01:19:17;25.35;;;16.02;;
37051;SDS011;22964;52.272;13.356;2022-11-15T01:22:01;26.45;;;15.65;;
37051;SDS011;22964;52.272;13.356;2022-11-15T01:24:45;24.92;;;15.70;;
37051;SDS011;22964;52.272;13.356;2022-11-15T01:27:29;26.42;;;16.73;;
37051;SDS011;22964;52.272;13.356;2022-11-15T01:30:13;25.45;;;15.73;;
37051;SDS011;22964;52.272;13.356;2022-11-15T01:32:58;26.98;;;16.67;;
37051;SDS011;22964;52.272;13.356;2022-11-15T01:35:42;26.00;;;16.15;;
37051;SDS011;22964;52.272;13.356;2022-11-15T01:38:26;26.40;;;16.20;;
37051;SDS011;22964;52.272;13.356;2022-11-15T01:41:17;24.50;;;15.05;;
37051;SDS011;22964;52.272;13.356;2022-11-15T01:47:23;26.95;;;15.18;;
37051;SDS011;22964;52.272;13.356;2022-11-15T01:50:16;27.67;;;16.38;;
37051;SDS011;22964;52.272;13.356;2022-11-15T01:53:04;25.08;;;16.13;;
37051;SDS011;22964;52.272;13.356;2022-11-15T01:55:49;26.98;;;15.95;;
37051;SDS011;22964;52.272;13.356;2022-11-15T01:58:33;25.10;;;15.85;;
37051;SDS011;22964;52.272;13.356;2022-11-15T02:01:19;25.77;;;15.32;;
37051;SDS011;22964;52.272;13.356;2022-11-15T02:04:09;27.67;;;14.95;;
37051;SDS011;22964;52.272;13.356;2022-11-15T02:07:04;24.67;;;15.50;;
37051;SDS011;22964;52.272;13.356;2022-11-15T02:09:52;25.67;;;15.68;;
37051;SDS011;22964;52.272;13.356;2022-11-15T02:12:37;24.38;;;14.75;;
37051;SDS011;22964;52.272;13.356;2022-11-15T02:15:23;26.70;;;14.95;;
37051;SDS011;22964;52.272;13.356;2022-11-15T02:18:17;25.63;;;14.67;;
37051;SDS011;22964;52.272;13.356;2022-11-15T02:45:30;21.80;;;13.73;;
37051;SDS011;22964;52.272;13.356;2022-11-15T02:48:19;25.77;;;14.77;;
37051;SDS011;22964;52.272;13.356;2022-11-15T02:51:05;23.50;;;14.45;;
37051;SDS011;22964;52.272;13.356;2022-11-15T02:53:49;25.10;;;15.20;;
37051;SDS011;22964;52.272;13.356;2022-11-15T02:56:34;23.45;;;13.90;;
37051;SDS011;22964;52.272;13.356;2022-11-15T02:59:21;22.15;;;13.95;;
37051;SDS011;22964;52.272;13.356;2022-11-15T03:02:23;23.65;;;14.50;;
37051;SDS011;22964;52.272;13.356;2022-11-15T03:05:20;22.67;;;13.57;;
37051;SDS011;22964;52.272;13.356;2022-11-15T03:11:35;22.85;;;13.32;;
37051;SDS011;22964;52.272;13.356;2022-11-15T03:14:36;21.83;;;13.00;;
37051;SDS011;22964;52.272;13.356;2022-11-15T03:17:41;21.52;;;13.27;;
37051;SDS011;22964;52.272;13.356;2022-11-15T03:20:39;19.17;;;11.88;;
37051;SDS011;22964;52.272;13.356;2022-11-15T03:23:24;22.92;;;13.57;;
37051;SDS011;22964;52.272;13.356;2022-11-15T03:26:11;22.85;;;12.23;;
37051;SDS011;22964;52.272;13.356;2022-11-15T03:29:03;21.95;;;13.35;;
37051;SDS011;22964;52.272;13.356;2022-11-15T03:31:53;20.75;;;12.15;;
37051;SDS011;22964;52.272;13.356;2022-11-15T03:40:44;21.75;;;12.20;;
37051;SDS011;22964;52.272;13.356;2022-11-15T03:46:26;18.03;;;10.97;;
37051;SDS011;22964;52.272;13.356;2022-11-15T03:49:25;20.42;;;11.45;;
37051;SDS011;22964;52.272;13.356;2022-11-15T03:52:18;20.10;;;11.48;;
37051;SDS011;22964;52.272;13.356;2022-11-15T03:55:05;21.88;;;11.82;;
37051;SDS011;22964;52.272;13.356;2022-11-15T03:57:53;19.17;;;11.55;;
37051;SDS011;22964;52.272;13.356;2022-11-15T04:00:41;19.15;;;11.45;;
37051;SDS011;22964;52.272;13.356;2022-11-15T04:03:26;19.98;;;12.07;;
37051;SDS011;22964;52.272;13.356;2022-11-15T04:06:10;20.20;;;12.07;;
37051;SDS011;22964;52.272;13.356;2022-11-15T04:08:55;19.75;;;11.82;;
37051;SDS011;22964;52.272;13.356;2022-11-15T04:11:39;21.73;;;12.60;;
37051;SDS011;22964;52.272;13.356;2022-11-15T04:14:23;19.70;;;11.85;;
37051;SDS011;22964;52.272;13.356;2022-11-15T04:17:07;20.17;;;11.95;;
37051;SDS011;22964;52.272;13.356;2022-11-15T04:19:51;20.48;;;12.35;;
37051;SDS011;22964;52.272;13.356;2022-11-15T04:22:55;19.95;;;11.38;;
37051;SDS011;22964;52.272;13.356;2022-11-15T04:25:59;18.98;;;11.05;;
37051;SDS011;22964;52.272;13.356;2022-11-15T04:28:46;19.00;;;11.38;;
37051;SDS011;22964;52.272;13.356;2022-11-15T04:31:51;21.25;;;12.25;;
37051;SDS011;22964;52.272;13.356;2022-11-15T04:34:35;21.90;;;13.40;;
37051;SDS011;22964;52.272;13.356;2022-11-15T04:37:22;19.83;;;12.50;;
37051;SDS011;22964;52.272;13.356;2022-11-15T04:40:06;20.85;;;12.63;;
37051;SDS011;22964;52.272;13.356;2022-11-15T04:42:51;20.75;;;12.73;;
37051;SDS011;22964;52.272;13.356;2022-11-15T04:45:36;18.80;;;11.68;;
37051;SDS011;22964;52.272;13.356;2022-11-15T04:48:20;22.80;;;12.75;;
37051;SDS011;22964;52.272;13.356;2022-11-15T04:51:04;21.77;;;12.05;;
37051;SDS011;22964;52.272;13.356;2022-11-15T04:53:48;18.92;;;11.80;;
37051;SDS011;22964;52.272;13.356;2022-11-15T04:56:32;19.98;;;12.02;;
37051;SDS011;22964;52.272;13.356;2022-11-15T04:59:17;21.27;;;12.45;;
37051;SDS011;22964;52.272;13.356;2022-11-15T05:02:01;19.77;;;12.18;;
37051;SDS011;22964;52.272;13.356;2022-11-15T05:04:45;21.42;;;12.40;;
37051;SDS011;22964;52.272;13.356;2022-11-15T05:07:29;19.23;;;11.65;;
37051;SDS011;22964;52.272;13.356;2022-11-15T05:10:13;17.95;;;10.85;;
37051;SDS011;22964;52.272;13.356;2022-11-15T05:12:58;19.60;;;11.52;;
37051;SDS011;22964;52.272;13.356;2022-11-15T05:15:42;18.50;;;11.35;;
37051;SDS011;22964;52.272;13.356;2022-11-15T05:18:27;20.35;;;12.18;;
37051;SDS011;22964;52.272;13.356;2022-11-15T05:21:13;23.42;;;12.30;;
37051;SDS011;22964;52.272;13.356;2022-11-15T05:23:58;19.10;;;12.18;;
37051;SDS011;22964;52.272;13.356;2022-11-15T05:26:43;19.38;;;11.63;;
37051;SDS011;22964;52.272;13.356;2022-11-15T05:29:27;17.35;;;11.07;;
37051;SDS011;22964;52.272;13.356;2022-11-15T05:32:11;18.73;;;11.38;;
37051;SDS011;22964;52.272;13.356;2022-11-15T05:34:56;19.65;;;11.07;;
37051;SDS011;22964;52.272;13.356;2022-11-15T05:37:41;16.98;;;10.63;;
37051;SDS011;22964;52.272;13.356;2022-11-15T05:40:25;18.17;;;10.90;;
37051;SDS011;22964;52.272;13.356;2022-11-15T05:43:11;18.40;;;11.52;;
37051;SDS011;22964;52.272;13.356;2022-11-15T05:45:56;18.48;;;11.15;;
37051;SDS011;22964;52.272;13.356;2022-11-15T05:48:42;18.23;;;10.98;;
37051;SDS011;22964;52.272;13.356;2022-11-15T05:51:30;22.90;;;10.73;;
37051;SDS011;22964;52.272;13.356;2022-11-15T05:54:14;17.63;;;11.30;;
37051;SDS011;22964;52.272;13.356;2022-11-15T05:57:00;20.50;;;10.93;;
37051;SDS011;22964;52.272;13.356;2022-11-15T05:59:51;17.27;;;10.50;;
37051;SDS011;22964;52.272;13.356;2022-11-15T06:02:35;18.52;;;11.05;;
37051;SDS011;22964;52.272;13.356;2022-11-15T06:05:20;17.23;;;10.80;;
37051;SDS011;22964;52.272;13.356;2022-11-15T06:08:04;16.98;;;10.85;;
37051;SDS011;22964;52.272;13.356;2022-11-15T06:10:48;16.67;;;10.77;;
37051;SDS011;22964;52.272;13.356;2022-11-15T06:13:32;18.52;;;11.63;;
37051;SDS011;22964;52.272;13.356;2022-11-15T06:16:17;20.92;;;11.27;;
37051;SDS011;22964;52.272;13.356;2022-11-15T06:19:01;16.20;;;10.82;;
37051;SDS011;22964;52.272;13.356;2022-11-15T06:21:45;19.70;;;11.77;;
37051;SDS011;22964;52.272;13.356;2022-11-15T06:24:29;17.33;;;11.43;;
37051;SDS011;22964;52.272;13.356;2022-11-15T06:27:14;18.38;;;11.45;;
37051;SDS011;22964;52.272;13.356;2022-11-15T06:29:58;17.33;;;11.32;;
37051;SDS011;22964;52.272;13.356;2022-11-15T06:32:42;16.45;;;10.75;;
37051;SDS011;22964;52.272;13.356;2022-11-15T06:35:26;20.23;;;11.65;;
37051;SDS011;22964;52.272;13.356;2022-11-15T06:38:11;15.88;;;10.20;;
37051;SDS011;22964;52.272;13.356;2022-11-15T06:41:01;16.42;;;10.65;;
37051;SDS011;22964;52.272;13.356;2022-11-15T06:43:46;17.27;;;10.98;;
37051;SDS011;22964;52.272;13.356;2022-11-15T06:46:31;16.77;;;10.43;;
37051;SDS011;22964;52.272;13.356;2022-11-15T06:49:15;18.00;;;10.25;;
37051;SDS011;22964;52.272;13.356;2022-11-15T06:52:00;16.23;;;10.50;;
37051;SDS011;22964;52.272;13.356;2022-11-15T06:54:45;15.38;;;9.77;;
37051;SDS011;22964;52.272;13.356;2022-11-15T06:57:29;16.58;;;10.82;;
37051;SDS011;22964;52.272;13.356;2022-11-15T07:00:13;17.27;;;11.38;;
37051;SDS011;22964;52.272;13.356;2022-11-15T07:03:01;18.15;;;11.55;;
37051;SDS011;22964;52.272;13.356;2022-11-15T07:05:55;18.23;;;11.25;;
37051;SDS011;22964;52.272;13.356;2022-11-15T07:08:41;19.58;;;11.77;;
37051;SDS011;22964;52.272;13.356;2022-11-15T07:11:25;17.83;;;11.27;;
37051;SDS011;22964;52.272;13.356;2022-11-15T07:14:09;17.63;;;11.05;;
37051;SDS011;22964;52.272;13.356;2022-11-15T07:16:53;19.00;;;12.00;;
37051;SDS011;22964;52.272;13.356;2022-11-15T07:19:37;19.48;;;12.40;;
37051;SDS011;22964;52.272;13.356;2022-11-15T07:22:21;24.52;;;12.68;;
37051;SDS011;22964;52.272;13.356;2022-11-15T07:25:05;19.23;;;12.02;;
37051;SDS011;22964;52.272;13.356;2022-11-15T07:27:54;22.30;;;12.05;;
37051;SDS011;22964;52.272;13.356;2022-11-15T07:30:42;21.70;;;12.35;;
37051;SDS011;22964;52.272;13.356;2022-11-15T07:33:26;20.77;;;12.52;;
37051;SDS011;22964;52.272;13.356;2022-11-15T07:36:10;20.88;;;12.88;;
37051;SDS011;22964;52.272;13.356;2022-11-15T07:38:54;20.35;;;12.05;;
37051;SDS011;22964;52.272;13.356;2022-11-15T07:41:38;22.60;;;12.82;;
37051;SDS011;22964;52.272;13.356;2022-11-15T07:44:22;19.92;;;12.48;;
37051;SDS011;22964;52.272;13.356;2022-11-15T07:47:06;22.55;;;12.27;;
37051;SDS011;22964;52.272;13.356;2022-11-15T07:49:50;21.95;;;12.93;;
37051;SDS011;22964;52.272;13.356;2022-11-15T07:52:35;23.95;;;13.48;;
37051;SDS011;22964;52.272;13.356;2022-11-15T07:55:20;22.70;;;13.45;;
37051;SDS011;22964;52.272;13.356;2022-11-15T07:58:07;22.98;;;13.27;;
37051;SDS011;22964;52.272;13.356;2022-11-15T08:00:53;21.65;;;13.15;;
37051;SDS011;22964;52.272;13.356;2022-11-15T08:03:37;20.45;;;12.80;;
37051;SDS011;22964;52.272;13.356;2022-11-15T08:06:21;21.02;;;12.18;;
37051;SDS011;22964;52.272;13.356;2022-11-15T08:09:05;21.75;;;12.95;;
37051;SDS011;22964;52.272;13.356;2022-11-15T08:11:49;21.15;;;13.38;;
37051;SDS011;22964;52.272;13.356;2022-11-15T08:14:34;20.20;;;12.98;;
37051;SDS011;22964;52.272;13.356;2022-11-15T08:17:19;21.77;;;13.43;;
37051;SDS011;22964;52.272;13.356;2022-11-15T08:20:03;21.33;;;12.93;;
37051;SDS011;22964;52.272;13.356;2022-11-15T08:22:48;22.20;;;13.15;;
37051;SDS011;22964;52.272;13.356;2022-11-15T08:25:33;22.63;;;13.02;;
37051;SDS011;22964;52.272;13.356;2022-11-15T08:28:18;23.58;;;13.43;;
37051;SDS011;22964;52.272;13.356;2022-11-15T08:31:03;21.88;;;13.55;;
37051;SDS011;22964;52.272;13.356;2022-11-15T08:33:47;21.27;;;13.43;;
37051;SDS011;22964;52.272;13.356;2022-11-15T08:36:32;22.23;;;13.77;;
37051;SDS011;22964;52.272;13.356;2022-11-15T08:39:16;22.92;;;14.88;;
37051;SDS011;22964;52.272;13.356;2022-11-15T08:42:00;24.45;;;14.40;;
37051;SDS011;22964;52.272;13.356;2022-11-15T08:44:45;22.33;;;14.63;;
37051;SDS011;22964;52.272;13.356;2022-11-15T08:47:29;22.88;;;14.27;;
37051;SDS011;22964;52.272;13.356;2022-11-15T08:50:14;24.42;;;15.15;;
37051;SDS011;22964;52.272;13.356;2022-11-15T08:53:03;22.85;;;14.20;;
37051;SDS011;22964;52.272;13.356;2022-11-15T08:55:49;21.35;;;13.80;;
37051;SDS011;22964;52.272;13.356;2022-11-15T08:58:33;21.83;;;14.05;;
37051;SDS011;22964;52.272;13.356;2022-11-15T09:01:18;22.80;;;13.70;;
37051;SDS011;22964;52.272;13.356;2022-11-15T09:04:03;21.15;;;13.35;;
37051;SDS011;22964;52.272;13.356;2022-11-15T09:06:47;19.88;;;12.43;;
37051;SDS011;22964;52.272;13.356;2022-11-15T09:09:32;19.88;;;12.52;;
37051;SDS011;22964;52.272;13.356;2022-11-15T09:12:16;17.63;;;11.70;;
37051;SDS011;22964;52.272;13.356;2022-11-15T09:15:00;18.27;;;11.57;;
37051;SDS011;22964;52.272;13.356;2022-11-15T09:17:45;19.20;;;11.45;;
37051;SDS011;22964;52.272;13.356;2022-11-15T09:20:29;18.50;;;11.57;;
37051;SDS011;22964;52.272;13.356;2022-11-15T09:23:13;19.70;;;11.55;;
37051;SDS011;22964;52.272;13.356;2022-11-15T09:26:00;19.83;;;12.50;;
37051;SDS011;22964;52.272;13.356;2022-11-15T09:28:46;17.13;;;11.45;;
37051;SDS011;22964;52.272;13.356;2022-11-15T09:31:30;20.08;;;12.27;;
37051;SDS011;22964;52.272;13.356;2022-11-15T09:34:14;16.80;;;11.23;;
37051;SDS011;22964;52.272;13.356;2022-11-15T09:36:58;18.50;;;11.55;;
37051;SDS011;22964;52.272;13.356;2022-11-15T09:39:42;16.80;;;10.38;;
37051;SDS011;22964;52.272;13.356;2022-11-15T09:42:41;17.98;;;11.45;;
37051;SDS011;22964;52.272;13.356;2022-11-15T09:48:46;14.68;;;9.85;;
37051;SDS011;22964;52.272;13.356;2022-11-15T09:56:30;14.15;;;9.43;;
37051;SDS011;22964;52.272;13.356;2022-11-15T10:04:14;13.15;;;8.88;;
37051;SDS011;22964;52.272;13.356;2022-11-15T10:06:46;12.88;;;8.65;;
37051;SDS011;22964;52.272;13.356;2022-11-15T10:09:24;13.95;;;8.65;;
37051;SDS011;22964;52.272;13.356;2022-11-15T10:11:57;13.15;;;8.60;;
37051;SDS011;22964;52.272;13.356;2022-11-15T10:14:23;12.90;;;8.88;;
37051;SDS011;22964;52.272;13.356;2022-11-15T10:16:55;14.50;;;8.68;;
37051;SDS011;22964;52.272;13.356;2022-11-15T10:22:47;14.15;;;7.70;;
37051;SDS011;22964;52.272;13.356;2022-11-15T10:27:59;12.93;;;8.57;;
37051;SDS011;22964;52.272;13.356;2022-11-15T10:30:36;11.30;;;7.68;;
37051;SDS011;22964;52.272;13.356;2022-11-15T10:33:26;11.68;;;7.70;;
37051;SDS011;22964;52.272;13.356;2022-11-15T10:41:15;10.52;;;7.35;;
37051;SDS011;22964;52.272;13.356;2022-11-15T10:44:01;11.65;;;6.95;;
37051;SDS011;22964;52.272;13.356;2022-11-15T10:46:45;9.55;;;6.65;;
37051;SDS011;22964;52.272;13.356;2022-11-15T10:49:31;9.73;;;6.45;;
37051;SDS011;22964;52.272;13.356;2022-11-15T10:52:02;10.02;;;6.60;;
37051;SDS011;22964;52.272;13.356;2022-11-15T10:54:39;8.82;;;6.07;;
37051;SDS011;22964;52.272;13.356;2022-11-15T10:57:15;9.20;;;6.15;;
37051;SDS011;22964;52.272;13.356;2022-11-15T10:59:56;9.25;;;6.07;;
37051;SDS011;22964;52.272;13.356;2022-11-15T11:04:55;8.23;;;5.88;;
37051;SDS011;22964;52.272;13.356;2022-11-15T11:07:23;8.30;;;5.72;;
37051;SDS011;22964;52.272;13.356;2022-11-15T11:09:57;6.82;;;5.20;;
37051;SDS011;22964;52.272;13.356;2022-11-15T11:12:28;7.50;;;5.10;;
37051;SDS011;22964;52.272;13.356;2022-11-15T11:14:57;7.45;;;5.30;;
37051;SDS011;22964;52.272;13.356;2022-11-15T11:17:38;9.05;;;5.22;;
37051;SDS011;22964;52.272;13.356;2022-11-15T11:31:43;7.10;;;4.38;;
37051;SDS011;22964;52.272;13.356;2022-11-15T11:45:46;5.25;;;3.70;;
37051;SDS011;22964;52.272;13.356;2022-11-15T11:49:01;11.45;;;4.80;;
37051;SDS011;22964;52.272;13.356;2022-11-15T11:51:30;5.82;;;3.67;;
37051;SDS011;22964;52.272;13.356;2022-11-15T11:54:12;5.45;;;3.92;;
37051;SDS011;22964;52.272;13.356;2022-11-15T11:56:52;7.22;;;4.10;;
37051;SDS011;22964;52.272;13.356;2022-11-15T11:59:21;6.18;;;3.75;;
37051;SDS011;22964;52.272;13.356;2022-11-15T12:01:54;5.07;;;3.47;;
37051;SDS011;22964;52.272;13.356;2022-11-15T12:04:27;6.50;;;3.75;;
37051;SDS011;22964;52.272;13.356;2022-11-15T12:07:07;5.50;;;3.78;;
37051;SDS011;22964;52.272;13.356;2022-11-15T12:09:44;5.18;;;3.25;;
37051;SDS011;22964;52.272;13.356;2022-11-15T12:15:04;5.20;;;3.45;;
37051;SDS011;22964;52.272;13.356;2022-11-15T12:17:41;5.00;;;3.28;;
37051;SDS011;22964;52.272;13.356;2022-11-15T12:20:17;6.32;;;3.50;;
37051;SDS011;22964;52.272;13.356;2022-11-15T12:25:25;5.43;;;3.67;;
37051;SDS011;22964;52.272;13.356;2022-11-15T12:28:14;5.68;;;3.80;;
37051;SDS011;22964;52.272;13.356;2022-11-15T12:33:49;5.18;;;3.60;;
37051;SDS011;22964;52.272;13.356;2022-11-15T12:38:59;4.70;;;3.17;;
37051;SDS011;22964;52.272;13.356;2022-11-15T12:41:28;6.57;;;3.70;;
37051;SDS011;22964;52.272;13.356;2022-11-15T12:44:01;5.13;;;3.30;;
37051;SDS011;22964;52.272;13.356;2022-11-15T12:48:58;5.03;;;3.30;;
37051;SDS011;22964;52.272;13.356;2022-11-15T13:20:22;5.13;;;3.40;;
37051;SDS011;22964;52.272;13.356;2022-11-15T13:36:45;4.75;;;3.40;;
37051;SDS011;22964;52.272;13.356;2022-11-15T13:39:13;5.68;;;4.10;;
37051;SDS011;22964;52.272;13.356;2022-11-15T13:41:50;7.03;;;3.50;;
37051;SDS011;22964;52.272;13.356;2022-11-15T13:44:21;7.25;;;3.63;;
37051;SDS011;22964;52.272;13.356;2022-11-15T13:46:48;5.30;;;3.63;;
37051;SDS011;22964;52.272;13.356;2022-11-15T13:49:28;6.68;;;4.05;;
37051;SDS011;22964;52.272;13.356;2022-11-15T13:51:56;6.20;;;4.03;;
37051;SDS011;22964;52.272;13.356;2022-11-15T13:54:39;7.03;;;4.10;;
37051;SDS011;22964;52.272;13.356;2022-11-15T13:57:17;6.05;;;3.67;;
37051;SDS011;22964;52.272;13.356;2022-11-15T14:02:39;5.20;;;3.60;;
37051;SDS011;22964;52.272;13.356;2022-11-15T14:05:14;5.53;;;3.67;;
37051;SDS011;22964;52.272;13.356;2022-11-15T14:07:59;6.65;;;4.50;;
37051;SDS011;22964;52.272;13.356;2022-11-15T14:10:46;7.13;;;4.30;;
37051;SDS011;22964;52.272;13.356;2022-11-15T14:13:26;8.90;;;5.18;;
37051;SDS011;22964;52.272;13.356;2022-11-15T14:15:55;8.60;;;5.18;;
37051;SDS011;22964;52.272;13.356;2022-11-15T14:18:44;7.70;;;5.18;;
37051;SDS011;22964;52.272;13.356;2022-11-15T14:21:18;8.25;;;5.45;;
37051;SDS011;22964;52.272;13.356;2022-11-15T14:23:45;10.40;;;5.65;;
37051;SDS011;22964;52.272;13.356;2022-11-15T14:26:25;9.93;;;6.05;;
37051;SDS011;22964;52.272;13.356;2022-11-15T14:31:48;10.48;;;6.57;;
37051;SDS011;22964;52.272;13.356;2022-11-15T14:34:14;9.23;;;6.18;;
37051;SDS011;22964;52.272;13.356;2022-11-15T14:36:40;13.60;;;7.05;;
37051;SDS011;22964;52.272;13.356;2022-11-15T14:39:06;10.82;;;7.15;;
37051;SDS011;22964;52.272;13.356;2022-11-15T14:41:34;10.68;;;7.00;;
37051;SDS011;22964;52.272;13.356;2022-11-15T14:44:03;13.20;;;7.10;;
37051;SDS011;22964;52.272;13.356;2022-11-15T14:46:30;10.45;;;6.68;;
37051;SDS011;22964;52.272;13.356;2022-11-15T14:48:56;10.88;;;6.85;;
37051;SDS011;22964;52.272;13.356;2022-11-15T14:51:22;11.35;;;6.80;;
37051;SDS011;22964;52.272;13.356;2022-11-15T14:53:48;9.77;;;6.45;;
37051;SDS011;22964;52.272;13.356;2022-11-15T14:56:14;11.82;;;6.60;;
37051;SDS011;22964;52.272;13.356;2022-11-15T14:58:41;9.30;;;6.20;;
37051;SDS011;22964;52.272;13.356;2022-11-15T15:01:20;9.73;;;6.70;;
37051;SDS011;22964;52.272;13.356;2022-11-15T15:03:49;8.93;;;6.57;;
37051;SDS011;22964;52.272;13.356;2022-11-15T15:06:17;10.63;;;6.32;;
37051;SDS011;22964;52.272;13.356;2022-11-15T15:08:43;11.27;;;6.47;;
37051;SDS011;22964;52.272;13.356;2022-11-15T15:11:11;11.25;;;7.25;;
37051;SDS011;22964;52.272;13.356;2022-11-15T15:13:41;10.80;;;6.90;;
37051;SDS011;22964;52.272;13.356;2022-11-15T15:16:07;9.57;;;6.80;;
37051;SDS011;22964;52.272;13.356;2022-11-15T15:18:33;9.13;;;6.22;;
37051;SDS011;22964;52.272;13.356;2022-11-15T15:20:59;9.82;;;6.68;;
37051;SDS011;22964;52.272;13.356;2022-11-15T15:23:28;8.93;;;6.13;;
37051;SDS011;22964;52.272;13.356;2022-11-15T15:25:56;10.82;;;6.30;;
37051;SDS011;22964;52.272;13.356;2022-11-15T15:28:22;10.52;;;6.15;;
37051;SDS011;22964;52.272;13.356;2022-11-15T15:30:48;7.88;;;5.50;;
37051;SDS011;22964;52.272;13.356;2022-11-15T15:33:14;11.05;;;6.43;;
37051;SDS011;22964;52.272;13.356;2022-11-15T15:35:40;11.68;;;6.57;;
37051;SDS011;22964;52.272;13.356;2022-11-15T15:38:08;8.00;;;5.72;;
37051;SDS011;22964;52.272;13.356;2022-11-15T15:40:37;8.07;;;5.97;;
37051;SDS011;22964;52.272;13.356;2022-11-15T15:43:03;11.52;;;6.40;;
37051;SDS011;22964;52.272;13.356;2022-11-15T15:45:29;10.05;;;6.30;;
37051;SDS011;22964;52.272;13.356;2022-11-15T15:47:55;7.95;;;5.55;;
37051;SDS011;22964;52.272;13.356;2022-11-15T15:50:23;10.75;;;6.60;;
37051;SDS011;22964;52.272;13.356;2022-11-15T15:52:51;10.05;;;6.68;;
37051;SDS011;22964;52.272;13.356;2022-11-15T15:55:19;12.48;;;6.43;;
37051;SDS011;22964;52.272;13.356;2022-11-15T15:57:44;9.25;;;6.10;;
37051;SDS011;22964;52.272;13.356;2022-11-15T16:00:11;9.80;;;6.70;;
37051;SDS011;22964;52.272;13.356;2022-11-15T16:02:37;10.32;;;6.93;;
37051;SDS011;22964;52.272;13.356;2022-11-15T16:05:04;10.30;;;6.75;;
37051;SDS011;22964;52.272;13.356;2022-11-15T16:07:30;11.82;;;6.85;;
37051;SDS011;22964;52.272;13.356;2022-11-15T16:09:56;9.73;;;6.70;;
37051;SDS011;22964;52.272;13.356;2022-11-15T16:12:32;10.45;;;6.60;;
37051;SDS011;22964;52.272;13.356;2022-11-15T16:14:59;11.32;;;6.90;;
37051;SDS011;22964;52.272;13.356;2022-11-15T16:17:26;11.50;;;7.00;;
37051;SDS011;22964;52.272;13.356;2022-11-15T16:19:56;10.50;;;6.80;;
37051;SDS011;22964;52.272;13.356;2022-11-15T16:22:21;11.60;;;7.10;;
37051;SDS011;22964;52.272;13.356;2022-11-15T16:24:47;10.30;;;6.72;;
37051;SDS011;22964;52.272;13.356;2022-11-15T16:27:16;10.45;;;6.78;;
37051;SDS011;22964;52.272;13.356;2022-11-15T16:32:11;10.25;;;6.60;;
37051;SDS011;22964;52.272;13.356;2022-11-15T16:34:37;12.25;;;7.20;;
37051;SDS011;22964;52.272;13.356;2022-11-15T16:37:03;13.15;;;7.10;;
37051;SDS011;22964;52.272;13.356;2022-11-15T16:39:29;11.77;;;7.47;;
37051;SDS011;22964;52.272;13.356;2022-11-15T16:41:59;11.80;;;8.18;;
37051;SDS011;22964;52.272;13.356;2022-11-15T16:44:25;11.52;;;7.30;;
37051;SDS011;22964;52.272;13.356;2022-11-15T16:46:51;12.88;;;7.97;;
37051;SDS011;22964;52.272;13.356;2022-11-15T16:49:18;12.05;;;7.60;;
37051;SDS011;22964;52.272;13.356;2022-11-15T16:51:45;12.77;;;8.05;;
37051;SDS011;22964;52.272;13.356;2022-11-15T16:54:12;13.85;;;8.35;;
37051;SDS011;22964;52.272;13.356;2022-11-15T16:56:38;14.57;;;8.07;;
37051;SDS011;22964;52.272;13.356;2022-11-15T16:59:05;13.02;;;8.68;;
37051;SDS011;22964;52.272;13.356;2022-11-15T17:01:32;15.55;;;9.25;;
37051;SDS011;22964;52.272;13.356;2022-11-15T17:04:03;14.93;;;9.25;;
37051;SDS011;22964;52.272;13.356;2022-11-15T17:06:40;15.13;;;9.30;;
37051;SDS011;22964;52.272;13.356;2022-11-15T17:09:16;15.10;;;9.52;;
37051;SDS011;22964;52.272;13.356;2022-11-15T17:11:43;16.08;;;9.50;;
37051;SDS011;22964;52.272;13.356;2022-11-15T17:14:09;15.90;;;9.73;;
37051;SDS011;22964;52.272;13.356;2022-11-15T17:16:36;16.77;;;9.65;;
37051;SDS011;22964;52.272;13.356;2022-11-15T17:19:10;17.45;;;9.95;;
37051;SDS011;22964;52.272;13.356;2022-11-15T17:21:37;17.63;;;9.93;;
37051;SDS011;22964;52.272;13.356;2022-11-15T17:24:03;16.20;;;9.82;;
37051;SDS011;22964;52.272;13.356;2022-11-15T17:26:29;15.70;;;10.38;;
37051;SDS011;22964;52.272;13.356;2022-11-15T17:28:55;16.05;;;10.50;;
37051;SDS011;22964;52.272;13.356;2022-11-15T17:31:21;14.88;;;10.07;;
37051;SDS011;22964;52.272;13.356;2022-11-15T17:33:47;18.02;;;11.00;;
37051;SDS011;22964;52.272;13.356;2022-11-15T17:36:13;18.33;;;10.73;;
37051;SDS011;22964;52.272;13.356;2022-11-15T17:38:41;17.27;;;10.55;;
37051;SDS011;22964;52.272;13.356;2022-11-15T17:41:14;20.17;;;11.65;;
37051;SDS011;22964;52.272;13.356;2022-11-15T17:43:40;17.80;;;11.75;;
37051;SDS011;22964;52.272;13.356;2022-11-15T17:46:07;17.90;;;11.20;;
37051;SDS011;22964;52.272;13.356;2022-11-15T17:48:37;18.20;;;11.52;;
37051;SDS011;22964;52.272;13.356;2022-11-15T17:51:04;15.40;;;10.48;;
37051;SDS011;22964;52.272;13.356;2022-11-15T17:53:32;17.45;;;11.07;;
37051;SDS011;22964;52.272;13.356;2022-11-15T17:56:00;18.23;;;11.35;;
37051;SDS011;22964;52.272;13.356;2022-11-15T17:58:28;17.83;;;10.63;;
37051;SDS011;22964;52.272;13.356;2022-11-15T18:00:54;19.42;;;11.02;;
37051;SDS011;22964;52.272;13.356;2022-11-15T18:03:19;18.42;;;10.95;;